METAR AND TAF INFORMATION
METAR FOR EKEB
ADDS - METARS form results

(1636 UTC 02 July 2020)
Data provider http://aviationweather.gov/metar/data/
 
METAR text: EKEB 021620Z 30006KT 9999 FEW040 15/09 Q1010
Conditions at: EKEB (ESBJERG , DK) observed 1620 UTC 02 July 2020
Temperature: 15.0°C (59°F)
Dewpoint: 9.0°C (48°F) [RH = 67%]
Pressure (altimeter): 29.82 inches Hg (1010.0 mb)
Winds: from the WNW (300 degrees) at 7 MPH (6 knots; 3.1 m/s)
Visibility: 6 or more miles (10+ km)
Ceiling: at least 12,000 feet AGL
Clouds: few clouds at 4000 feet AGL
Weather: no significant weather observed at this time

METAR text: EKEB 021550Z 30007KT 260V330 9999 FEW040 15/08 Q1010
Conditions at: EKEB (ESBJERG , DK) observed 1550 UTC 02 July 2020
Temperature: 15.0°C (59°F)
Dewpoint: 8.0°C (46°F) [RH = 63%]
Pressure (altimeter): 29.82 inches Hg (1010.0 mb)
Winds: from the WNW (300 degrees) at 8 MPH (7 knots; 3.6 m/s)
Visibility: 6 or more miles (10+ km)
Ceiling: at least 12,000 feet AGL
Clouds: few clouds at 4000 feet AGL
Weather: no significant weather observed at this time

Forecast for: EKEB (ESBJERG , DK)
Text: TAF EKEB 021422Z 0215/0222 32008KT 9999 FEW040
Forecast period: 1500 to 2200 UTC 02 July 2020
Forecast type: FROM: standard forecast or significant change
Winds: from the NW (320 degrees) at 9 MPH (8 knots; 4.1 m/s)
Visibility: 6 or more miles 10+ km)
Ceiling: at least 12,000 feet AGL
Clouds: few clouds at 4000 feet AGL
Weather: no significant weather forecast for this period

 AIRPORT MAP

 RUNWAY INFORMATION
Runway 08 Runway length 8527 ft Runway width 148 ft
Runway elevation 78 ft Runway displaced threshold 0 ft Runway heading 79
Runway 26 Runway length 8527 ft Runway width 148 ft
Runway elevation 97 ft Runway displaced threshold 0 ft Runway heading 259

 AIRPORT FREQUENCIES
Type AFIS Name AFIS Frequency 120.15 MHZ
Type MISC Name HANDLING Frequency 130.575 MHZ

 AIRPORT NEAR NAVIGATION AIDS
Type NDB Name Esbjerg Frequency 376 KHZ



Powered by Virtual Airlines Manager [v2.6.2]